sensor_id;sensor_type;location;lat;lon;timestamp;P1;durP1;ratioP1;P2;durP2;ratioP2
36241;SDS011;22283;42.748;12.732;2022-12-15T00:01:06;151.13;;;27.27;;
36241;SDS011;22283;42.748;12.732;2022-12-15T00:06:26;549.33;;;50.40;;
36241;SDS011;22283;42.748;12.732;2022-12-15T00:11:46;258.67;;;33.35;;
36241;SDS011;22283;42.748;12.732;2022-12-15T00:17:05;432.92;;;43.50;;
36241;SDS011;22283;42.748;12.732;2022-12-15T00:22:25;269.63;;;37.53;;
36241;SDS011;22283;42.748;12.732;2022-12-15T00:27:44;573.72;;;50.90;;
36241;SDS011;22283;42.748;12.732;2022-12-15T00:33:06;593.90;;;52.20;;
36241;SDS011;22283;42.748;12.732;2022-12-15T00:38:26;369.67;;;41.97;;
36241;SDS011;22283;42.748;12.732;2022-12-15T00:43:45;415.38;;;45.63;;
36241;SDS011;22283;42.748;12.732;2022-12-15T00:48:46;350.75;;;46.60;;
36241;SDS011;22283;42.748;12.732;2022-12-15T00:53:47;222.30;;;38.97;;
36241;SDS011;22283;42.748;12.732;2022-12-15T00:59:07;279.25;;;39.47;;
36241;SDS011;22283;42.748;12.732;2022-12-15T01:04:27;270.60;;;42.17;;
36241;SDS011;22283;42.748;12.732;2022-12-15T01:09:46;509.35;;;54.30;;
36241;SDS011;22283;42.748;12.732;2022-12-15T01:15:06;278.55;;;37.15;;
36241;SDS011;22283;42.748;12.732;2022-12-15T01:20:25;262.30;;;36.80;;
36241;SDS011;22283;42.748;12.732;2022-12-15T01:25:26;114.63;;;29.73;;
36241;SDS011;22283;42.748;12.732;2022-12-15T01:30:27;165.73;;;33.77;;
36241;SDS011;22283;42.748;12.732;2022-12-15T01:35:28;174.50;;;31.23;;
36241;SDS011;22283;42.748;12.732;2022-12-15T01:40:29;291.13;;;35.93;;
36241;SDS011;22283;42.748;12.732;2022-12-15T01:46:04;138.88;;;31.52;;
36241;SDS011;22283;42.748;12.732;2022-12-15T01:51:10;262.75;;;36.67;;
36241;SDS011;22283;42.748;12.732;2022-12-15T01:56:15;295.48;;;40.05;;
36241;SDS011;22283;42.748;12.732;2022-12-15T02:01:17;300.15;;;38.03;;
36241;SDS011;22283;42.748;12.732;2022-12-15T02:06:19;211.15;;;32.08;;
36241;SDS011;22283;42.748;12.732;2022-12-15T02:16:54;387.10;;;44.05;;
36241;SDS011;22283;42.748;12.732;2022-12-15T02:27:27;141.25;;;32.53;;
36241;SDS011;22283;42.748;12.732;2022-12-15T02:33:12;139.63;;;29.45;;
36241;SDS011;22283;42.748;12.732;2022-12-15T02:38:37;429.67;;;45.72;;
36241;SDS011;22283;42.748;12.732;2022-12-15T02:43:38;126.68;;;28.90;;
36241;SDS011;22283;42.748;12.732;2022-12-15T02:48:44;153.27;;;31.80;;
36241;SDS011;22283;42.748;12.732;2022-12-15T02:53:57;137.98;;;31.25;;
36241;SDS011;22283;42.748;12.732;2022-12-15T02:59:06;284.90;;;37.20;;
36241;SDS011;22283;42.748;12.732;2022-12-15T03:04:10;133.20;;;28.73;;
36241;SDS011;22283;42.748;12.732;2022-12-15T03:09:13;130.95;;;28.40;;
36241;SDS011;22283;42.748;12.732;2022-12-15T03:14:14;95.87;;;24.37;;
36241;SDS011;22283;42.748;12.732;2022-12-15T03:19:14;190.87;;;28.93;;
36241;SDS011;22283;42.748;12.732;2022-12-15T03:24:15;54.50;;;21.77;;
36241;SDS011;22283;42.748;12.732;2022-12-15T03:29:16;77.60;;;26.03;;
36241;SDS011;22283;42.748;12.732;2022-12-15T03:34:17;67.97;;;23.55;;
36241;SDS011;22283;42.748;12.732;2022-12-15T03:39:18;53.23;;;23.17;;
36241;SDS011;22283;42.748;12.732;2022-12-15T03:44:18;49.07;;;21.10;;
36241;SDS011;22283;42.748;12.732;2022-12-15T03:49:20;55.42;;;21.73;;
36241;SDS011;22283;42.748;12.732;2022-12-15T03:54:20;53.03;;;20.67;;
36241;SDS011;22283;42.748;12.732;2022-12-15T03:59:21;48.83;;;20.73;;
36241;SDS011;22283;42.748;12.732;2022-12-15T04:04:22;53.10;;;21.87;;
36241;SDS011;22283;42.748;12.732;2022-12-15T04:09:22;46.93;;;19.43;;
36241;SDS011;22283;42.748;12.732;2022-12-15T04:14:23;42.70;;;20.57;;
36241;SDS011;22283;42.748;12.732;2022-12-15T04:19:24;45.60;;;19.10;;
36241;SDS011;22283;42.748;12.732;2022-12-15T04:24:43;47.70;;;19.52;;
36241;SDS011;22283;42.748;12.732;2022-12-15T04:30:02;45.95;;;20.05;;
36241;SDS011;22283;42.748;12.732;2022-12-15T04:35:22;38.78;;;18.77;;
36241;SDS011;22283;42.748;12.732;2022-12-15T04:40:41;36.92;;;18.48;;
36241;SDS011;22283;42.748;12.732;2022-12-15T04:46:02;35.90;;;17.10;;
36241;SDS011;22283;42.748;12.732;2022-12-15T04:51:21;31.45;;;15.63;;
36241;SDS011;22283;42.748;12.732;2022-12-15T04:56:41;32.28;;;14.82;;
36241;SDS011;22283;42.748;12.732;2022-12-15T05:02:00;28.85;;;15.38;;
36241;SDS011;22283;42.748;12.732;2022-12-15T05:07:18;26.60;;;13.35;;
36241;SDS011;22283;42.748;12.732;2022-12-15T05:12:38;24.23;;;14.75;;
36241;SDS011;22283;42.748;12.732;2022-12-15T05:17:57;26.90;;;13.68;;
36241;SDS011;22283;42.748;12.732;2022-12-15T05:23:16;18.73;;;10.93;;
36241;SDS011;22283;42.748;12.732;2022-12-15T05:28:36;19.33;;;10.13;;
36241;SDS011;22283;42.748;12.732;2022-12-15T05:33:55;17.83;;;10.25;;
36241;SDS011;22283;42.748;12.732;2022-12-15T05:38:56;14.80;;;9.40;;
36241;SDS011;22283;42.748;12.732;2022-12-15T05:43:57;21.13;;;11.33;;
36241;SDS011;22283;42.748;12.732;2022-12-15T05:48:58;17.80;;;9.20;;
36241;SDS011;22283;42.748;12.732;2022-12-15T05:53:58;13.67;;;7.77;;
36241;SDS011;22283;42.748;12.732;2022-12-15T05:58:59;12.53;;;8.03;;
36241;SDS011;22283;42.748;12.732;2022-12-15T06:04:00;9.60;;;6.20;;
36241;SDS011;22283;42.748;12.732;2022-12-15T06:09:01;8.67;;;5.30;;
36241;SDS011;22283;42.748;12.732;2022-12-15T06:19:03;14.30;;;9.10;;
36241;SDS011;22283;42.748;12.732;2022-12-15T06:24:04;18.33;;;9.13;;
36241;SDS011;22283;42.748;12.732;2022-12-15T06:29:06;11.85;;;6.80;;
36241;SDS011;22283;42.748;12.732;2022-12-15T06:34:10;22.48;;;13.32;;
36241;SDS011;22283;42.748;12.732;2022-12-15T06:39:13;21.88;;;12.18;;
36241;SDS011;22283;42.748;12.732;2022-12-15T06:44:15;11.68;;;7.65;;
36241;SDS011;22283;42.748;12.732;2022-12-15T06:49:15;7.27;;;4.50;;
36241;SDS011;22283;42.748;12.732;2022-12-15T06:54:16;10.33;;;4.93;;
36241;SDS011;22283;42.748;12.732;2022-12-15T06:59:17;7.43;;;4.60;;
36241;SDS011;22283;42.748;12.732;2022-12-15T07:04:17;5.73;;;3.70;;
36241;SDS011;22283;42.748;12.732;2022-12-15T07:09:18;7.17;;;4.27;;
36241;SDS011;22283;42.748;12.732;2022-12-15T07:14:19;6.77;;;4.43;;
36241;SDS011;22283;42.748;12.732;2022-12-15T07:19:19;6.80;;;4.03;;
36241;SDS011;22283;42.748;12.732;2022-12-15T07:24:20;6.90;;;4.77;;
36241;SDS011;22283;42.748;12.732;2022-12-15T07:29:21;6.07;;;3.57;;
36241;SDS011;22283;42.748;12.732;2022-12-15T07:34:22;6.57;;;3.73;;
36241;SDS011;22283;42.748;12.732;2022-12-15T07:39:23;5.65;;;3.40;;
36241;SDS011;22283;42.748;12.732;2022-12-15T07:44:26;3.97;;;3.03;;
36241;SDS011;22283;42.748;12.732;2022-12-15T07:49:28;3.78;;;2.92;;
36241;SDS011;22283;42.748;12.732;2022-12-15T07:54:29;6.83;;;2.80;;
36241;SDS011;22283;42.748;12.732;2022-12-15T07:59:30;3.92;;;2.10;;
36241;SDS011;22283;42.748;12.732;2022-12-15T08:04:30;3.30;;;1.90;;
36241;SDS011;22283;42.748;12.732;2022-12-15T08:09:31;3.10;;;1.83;;
36241;SDS011;22283;42.748;12.732;2022-12-15T08:14:32;4.00;;;2.27;;
36241;SDS011;22283;42.748;12.732;2022-12-15T08:19:33;9.30;;;6.38;;
36241;SDS011;22283;42.748;12.732;2022-12-15T08:24:33;5.27;;;2.83;;
36241;SDS011;22283;42.748;12.732;2022-12-15T08:29:34;5.30;;;3.00;;
36241;SDS011;22283;42.748;12.732;2022-12-15T08:34:35;5.93;;;2.80;;
36241;SDS011;22283;42.748;12.732;2022-12-15T08:39:35;3.20;;;1.97;;
36241;SDS011;22283;42.748;12.732;2022-12-15T08:44:36;2.10;;;1.33;;
36241;SDS011;22283;42.748;12.732;2022-12-15T08:49:36;4.03;;;2.77;;
36241;SDS011;22283;42.748;12.732;2022-12-15T08:54:37;11.73;;;2.70;;
36241;SDS011;22283;42.748;12.732;2022-12-15T08:59:38;6.70;;;2.50;;
36241;SDS011;22283;42.748;12.732;2022-12-15T09:04:38;4.03;;;2.07;;
36241;SDS011;22283;42.748;12.732;2022-12-15T09:09:39;11.43;;;2.40;;
36241;SDS011;22283;42.748;12.732;2022-12-15T09:14:40;5.37;;;2.40;;
36241;SDS011;22283;42.748;12.732;2022-12-15T09:19:41;4.57;;;1.80;;
36241;SDS011;22283;42.748;12.732;2022-12-15T09:24:41;5.20;;;1.67;;
36241;SDS011;22283;42.748;12.732;2022-12-15T09:29:42;4.70;;;1.90;;
36241;SDS011;22283;42.748;12.732;2022-12-15T09:34:42;8.13;;;2.60;;
36241;SDS011;22283;42.748;12.732;2022-12-15T09:39:43;3.47;;;2.03;;
36241;SDS011;22283;42.748;12.732;2022-12-15T09:44:44;5.93;;;2.57;;
36241;SDS011;22283;42.748;12.732;2022-12-15T09:49:47;4.23;;;2.33;;
36241;SDS011;22283;42.748;12.732;2022-12-15T09:54:50;5.43;;;2.00;;
36241;SDS011;22283;42.748;12.732;2022-12-15T09:59:59;11.80;;;3.37;;
36241;SDS011;22283;42.748;12.732;2022-12-15T10:05:16;9.70;;;3.40;;
36241;SDS011;22283;42.748;12.732;2022-12-15T10:10:48;10.70;;;2.55;;
36241;SDS011;22283;42.748;12.732;2022-12-15T10:15:57;5.88;;;1.90;;
36241;SDS011;22283;42.748;12.732;2022-12-15T10:21:01;7.22;;;2.15;;
36241;SDS011;22283;42.748;12.732;2022-12-15T10:36:26;9.73;;;2.28;;
36241;SDS011;22283;42.748;12.732;2022-12-15T10:41:30;8.87;;;2.83;;
36241;SDS011;22283;42.748;12.732;2022-12-15T10:46:32;5.70;;;2.13;;
36241;SDS011;22283;42.748;12.732;2022-12-15T10:51:36;7.40;;;2.27;;
36241;SDS011;22283;42.748;12.732;2022-12-15T10:56:52;11.93;;;2.60;;
36241;SDS011;22283;42.748;12.732;2022-12-15T11:01:55;3.30;;;1.80;;
36241;SDS011;22283;42.748;12.732;2022-12-15T11:06:57;5.60;;;2.30;;
36241;SDS011;22283;42.748;12.732;2022-12-15T11:11:59;5.72;;;1.90;;
36241;SDS011;22283;42.748;12.732;2022-12-15T11:17:20;3.45;;;1.98;;
36241;SDS011;22283;42.748;12.732;2022-12-15T11:27:41;5.55;;;2.15;;
36241;SDS011;22283;42.748;12.732;2022-12-15T11:32:53;14.10;;;2.78;;
36241;SDS011;22283;42.748;12.732;2022-12-15T11:38:00;14.07;;;2.80;;
36241;SDS011;22283;42.748;12.732;2022-12-15T11:49:15;5.35;;;1.83;;
36241;SDS011;22283;42.748;12.732;2022-12-15T12:00:32;8.63;;;2.00;;
36241;SDS011;22283;42.748;12.732;2022-12-15T12:21:25;5.03;;;2.40;;
36241;SDS011;22283;42.748;12.732;2022-12-15T12:26:44;12.30;;;2.60;;
36241;SDS011;22283;42.748;12.732;2022-12-15T12:42:41;15.90;;;3.10;;
36241;SDS011;22283;42.748;12.732;2022-12-15T12:47:51;4.93;;;1.90;;
36241;SDS011;22283;42.748;12.732;2022-12-15T12:52:59;6.75;;;2.40;;
36241;SDS011;22283;42.748;12.732;2022-12-15T12:58:02;5.82;;;2.05;;
36241;SDS011;22283;42.748;12.732;2022-12-15T13:03:17;11.97;;;2.40;;
36241;SDS011;22283;42.748;12.732;2022-12-15T13:08:44;9.10;;;2.70;;
36241;SDS011;22283;42.748;12.732;2022-12-15T13:13:47;6.35;;;2.55;;
36241;SDS011;22283;42.748;12.732;2022-12-15T13:19:01;6.83;;;1.77;;
36241;SDS011;22283;42.748;12.732;2022-12-15T13:29:30;9.18;;;2.58;;
36241;SDS011;22283;42.748;12.732;2022-12-15T13:34:36;5.28;;;2.40;;
36241;SDS011;22283;42.748;12.732;2022-12-15T13:40:22;10.93;;;3.90;;
36241;SDS011;22283;42.748;12.732;2022-12-15T13:45:31;17.85;;;4.18;;
36241;SDS011;22283;42.748;12.732;2022-12-15T13:50:55;19.13;;;12.63;;
36241;SDS011;22283;42.748;12.732;2022-12-15T14:01:18;8.13;;;6.35;;
36241;SDS011;22283;42.748;12.732;2022-12-15T14:06:22;4.68;;;2.47;;
36241;SDS011;22283;42.748;12.732;2022-12-15T14:11:23;8.73;;;4.27;;
36241;SDS011;22283;42.748;12.732;2022-12-15T14:16:28;9.52;;;6.70;;
36241;SDS011;22283;42.748;12.732;2022-12-15T14:21:32;9.50;;;4.20;;
36241;SDS011;22283;42.748;12.732;2022-12-15T14:26:34;6.03;;;2.90;;
36241;SDS011;22283;42.748;12.732;2022-12-15T14:31:34;5.57;;;2.33;;
36241;SDS011;22283;42.748;12.732;2022-12-15T14:36:36;12.05;;;6.47;;
36241;SDS011;22283;42.748;12.732;2022-12-15T14:41:42;5.00;;;2.78;;
36241;SDS011;22283;42.748;12.732;2022-12-15T14:46:46;11.02;;;3.28;;
36241;SDS011;22283;42.748;12.732;2022-12-15T14:51:49;9.80;;;4.03;;
36241;SDS011;22283;42.748;12.732;2022-12-15T15:07:15;11.52;;;4.20;;
36241;SDS011;22283;42.748;12.732;2022-12-15T15:12:18;8.65;;;3.10;;
36241;SDS011;22283;42.748;12.732;2022-12-15T15:17:25;35.67;;;20.55;;
36241;SDS011;22283;42.748;12.732;2022-12-15T15:27:39;8.38;;;5.72;;
36241;SDS011;22283;42.748;12.732;2022-12-15T15:37:58;3.40;;;2.50;;
36241;SDS011;22283;42.748;12.732;2022-12-15T15:43:09;4.30;;;2.60;;
36241;SDS011;22283;42.748;12.732;2022-12-15T15:48:18;6.68;;;3.40;;
36241;SDS011;22283;42.748;12.732;2022-12-15T15:53:28;6.97;;;4.35;;
36241;SDS011;22283;42.748;12.732;2022-12-15T15:58:34;3.78;;;2.80;;
36241;SDS011;22283;42.748;12.732;2022-12-15T16:03:34;4.10;;;2.33;;
36241;SDS011;22283;42.748;12.732;2022-12-15T16:08:35;5.73;;;3.40;;
36241;SDS011;22283;42.748;12.732;2022-12-15T16:13:37;4.50;;;2.70;;
36241;SDS011;22283;42.748;12.732;2022-12-15T16:18:38;5.78;;;3.13;;
36241;SDS011;22283;42.748;12.732;2022-12-15T16:23:40;4.40;;;2.50;;
36241;SDS011;22283;42.748;12.732;2022-12-15T16:28:44;4.90;;;2.42;;
36241;SDS011;22283;42.748;12.732;2022-12-15T16:33:45;4.73;;;2.47;;
36241;SDS011;22283;42.748;12.732;2022-12-15T16:38:45;3.93;;;2.40;;
36241;SDS011;22283;42.748;12.732;2022-12-15T16:43:46;4.23;;;2.77;;
36241;SDS011;22283;42.748;12.732;2022-12-15T16:48:47;4.20;;;2.77;;
36241;SDS011;22283;42.748;12.732;2022-12-15T16:53:47;5.60;;;3.30;;
36241;SDS011;22283;42.748;12.732;2022-12-15T16:58:48;4.90;;;3.10;;
36241;SDS011;22283;42.748;12.732;2022-12-15T17:03:49;3.70;;;2.00;;
36241;SDS011;22283;42.748;12.732;2022-12-15T17:08:50;4.07;;;2.40;;
36241;SDS011;22283;42.748;12.732;2022-12-15T17:13:55;3.35;;;2.03;;
36241;SDS011;22283;42.748;12.732;2022-12-15T17:18:57;6.78;;;3.33;;
36241;SDS011;22283;42.748;12.732;2022-12-15T17:23:59;9.37;;;6.53;;
36241;SDS011;22283;42.748;12.732;2022-12-15T17:29:13;8.07;;;6.13;;
36241;SDS011;22283;42.748;12.732;2022-12-15T17:34:26;3.93;;;2.20;;
36241;SDS011;22283;42.748;12.732;2022-12-15T17:39:29;4.28;;;2.05;;
36241;SDS011;22283;42.748;12.732;2022-12-15T17:44:35;5.65;;;2.53;;
36241;SDS011;22283;42.748;12.732;2022-12-15T17:49:35;5.68;;;2.38;;
36241;SDS011;22283;42.748;12.732;2022-12-15T17:54:36;4.83;;;1.93;;
36241;SDS011;22283;42.748;12.732;2022-12-15T17:59:37;4.00;;;2.23;;
36241;SDS011;22283;42.748;12.732;2022-12-15T18:04:37;6.97;;;2.47;;
36241;SDS011;22283;42.748;12.732;2022-12-15T18:09:38;5.43;;;2.03;;
36241;SDS011;22283;42.748;12.732;2022-12-15T18:14:40;4.07;;;2.30;;
36241;SDS011;22283;42.748;12.732;2022-12-15T18:19:40;5.57;;;2.40;;
36241;SDS011;22283;42.748;12.732;2022-12-15T18:24:41;6.23;;;2.27;;
36241;SDS011;22283;42.748;12.732;2022-12-15T18:29:42;3.23;;;2.10;;
36241;SDS011;22283;42.748;12.732;2022-12-15T18:34:42;5.90;;;2.03;;
36241;SDS011;22283;42.748;12.732;2022-12-15T18:39:44;5.47;;;2.42;;
36241;SDS011;22283;42.748;12.732;2022-12-15T18:44:46;14.98;;;8.75;;
36241;SDS011;22283;42.748;12.732;2022-12-15T18:49:48;14.35;;;8.43;;
36241;SDS011;22283;42.748;12.732;2022-12-15T18:54:49;9.00;;;4.03;;
36241;SDS011;22283;42.748;12.732;2022-12-15T18:59:52;8.73;;;4.20;;
36241;SDS011;22283;42.748;12.732;2022-12-15T19:04:56;5.40;;;2.40;;
36241;SDS011;22283;42.748;12.732;2022-12-15T19:09:57;9.50;;;3.40;;
36241;SDS011;22283;42.748;12.732;2022-12-15T19:14:57;7.07;;;2.53;;
36241;SDS011;22283;42.748;12.732;2022-12-15T19:19:58;4.30;;;2.30;;
36241;SDS011;22283;42.748;12.732;2022-12-15T19:25:18;5.28;;;2.10;;
36241;SDS011;22283;42.748;12.732;2022-12-15T19:30:23;5.28;;;2.40;;
36241;SDS011;22283;42.748;12.732;2022-12-15T19:35:26;7.88;;;2.95;;
36241;SDS011;22283;42.748;12.732;2022-12-15T19:40:29;4.55;;;2.28;;
36241;SDS011;22283;42.748;12.732;2022-12-15T19:45:31;6.30;;;2.25;;
36241;SDS011;22283;42.748;12.732;2022-12-15T19:50:33;6.60;;;2.20;;
36241;SDS011;22283;42.748;12.732;2022-12-15T19:55:36;5.28;;;2.20;;
36241;SDS011;22283;42.748;12.732;2022-12-15T20:00:37;4.95;;;2.15;;
36241;SDS011;22283;42.748;12.732;2022-12-15T20:05:38;4.90;;;1.90;;
36241;SDS011;22283;42.748;12.732;2022-12-15T20:10:39;6.88;;;1.60;;
36241;SDS011;22283;42.748;12.732;2022-12-15T20:15:40;4.40;;;1.40;;
36241;SDS011;22283;42.748;12.732;2022-12-15T20:20:42;2.60;;;1.17;;
36241;SDS011;22283;42.748;12.732;2022-12-15T20:25:44;8.00;;;1.55;;
36241;SDS011;22283;42.748;12.732;2022-12-15T20:35:47;5.22;;;1.52;;
36241;SDS011;22283;42.748;12.732;2022-12-15T20:40:49;3.08;;;1.20;;
36241;SDS011;22283;42.748;12.732;2022-12-15T20:51:05;5.78;;;1.33;;
36241;SDS011;22283;42.748;12.732;2022-12-15T20:56:07;7.30;;;1.92;;
36241;SDS011;22283;42.748;12.732;2022-12-15T21:01:31;7.75;;;2.00;;
36241;SDS011;22283;42.748;12.732;2022-12-15T21:06:32;8.18;;;2.22;;
36241;SDS011;22283;42.748;12.732;2022-12-15T21:11:38;12.60;;;2.67;;
36241;SDS011;22283;42.748;12.732;2022-12-15T21:16:39;8.30;;;1.95;;
36241;SDS011;22283;42.748;12.732;2022-12-15T21:21:47;5.03;;;1.63;;
36241;SDS011;22283;42.748;12.732;2022-12-15T21:26:50;9.80;;;1.90;;
36241;SDS011;22283;42.748;12.732;2022-12-15T21:31:51;9.50;;;1.90;;
36241;SDS011;22283;42.748;12.732;2022-12-15T21:36:53;5.68;;;2.60;;
36241;SDS011;22283;42.748;12.732;2022-12-15T21:41:53;6.10;;;2.47;;
36241;SDS011;22283;42.748;12.732;2022-12-15T21:46:57;5.28;;;1.50;;
36241;SDS011;22283;42.748;12.732;2022-12-15T21:51:58;5.30;;;1.80;;
36241;SDS011;22283;42.748;12.732;2022-12-15T21:57:00;13.68;;;3.35;;
36241;SDS011;22283;42.748;12.732;2022-12-15T22:07:35;9.77;;;2.53;;
36241;SDS011;22283;42.748;12.732;2022-12-15T22:12:35;6.87;;;3.00;;
36241;SDS011;22283;42.748;12.732;2022-12-15T22:17:37;11.43;;;3.20;;
36241;SDS011;22283;42.748;12.732;2022-12-15T22:22:37;14.57;;;3.03;;
36241;SDS011;22283;42.748;12.732;2022-12-15T22:27:38;14.73;;;3.67;;
36241;SDS011;22283;42.748;12.732;2022-12-15T22:32:39;10.60;;;3.87;;
36241;SDS011;22283;42.748;12.732;2022-12-15T22:37:40;16.40;;;4.07;;
36241;SDS011;22283;42.748;12.732;2022-12-15T22:42:45;11.57;;;3.45;;
36241;SDS011;22283;42.748;12.732;2022-12-15T22:47:51;10.38;;;3.13;;
36241;SDS011;22283;42.748;12.732;2022-12-15T22:52:52;10.13;;;3.17;;
36241;SDS011;22283;42.748;12.732;2022-12-15T22:58:00;12.27;;;3.03;;
36241;SDS011;22283;42.748;12.732;2022-12-15T23:03:06;11.95;;;2.65;;
36241;SDS011;22283;42.748;12.732;2022-12-15T23:08:10;11.90;;;3.70;;
36241;SDS011;22283;42.748;12.732;2022-12-15T23:13:10;13.03;;;3.57;;
36241;SDS011;22283;42.748;12.732;2022-12-15T23:18:14;13.57;;;3.13;;
36241;SDS011;22283;42.748;12.732;2022-12-15T23:23:15;16.17;;;4.33;;
36241;SDS011;22283;42.748;12.732;2022-12-15T23:28:16;11.93;;;3.17;;
36241;SDS011;22283;42.748;12.732;2022-12-15T23:33:17;9.80;;;2.53;;
36241;SDS011;22283;42.748;12.732;2022-12-15T23:38:18;20.58;;;3.15;;
36241;SDS011;22283;42.748;12.732;2022-12-15T23:43:19;14.37;;;3.57;;
36241;SDS011;22283;42.748;12.732;2022-12-15T23:48:20;11.45;;;3.10;;
36241;SDS011;22283;42.748;12.732;2022-12-15T23:53:21;14.00;;;2.83;;
36241;SDS011;22283;42.748;12.732;2022-12-15T23:58:22;18.20;;;3.67;;
